sensor_id;sensor_type;location;lat;lon;timestamp;P1;durP1;ratioP1;P2;durP2;ratioP2
55148;SDS011;49539;48.160;11.530;2023-04-25T00:00:14;3.15;;;1.88;;
55148;SDS011;49539;48.160;11.530;2023-04-25T00:02:40;3.92;;;1.80;;
55148;SDS011;49539;48.160;11.530;2023-04-25T00:05:06;2.97;;;1.63;;
55148;SDS011;49539;48.160;11.530;2023-04-25T00:07:31;2.95;;;1.48;;
55148;SDS011;49539;48.160;11.530;2023-04-25T00:09:57;3.95;;;1.75;;
55148;SDS011;49539;48.160;11.530;2023-04-25T00:12:23;4.35;;;1.98;;
55148;SDS011;49539;48.160;11.530;2023-04-25T00:14:48;3.45;;;1.98;;
55148;SDS011;49539;48.160;11.530;2023-04-25T00:17:15;3.63;;;1.73;;
55148;SDS011;49539;48.160;11.530;2023-04-25T00:19:41;2.63;;;1.55;;
55148;SDS011;49539;48.160;11.530;2023-04-25T00:22:06;3.05;;;1.75;;
55148;SDS011;49539;48.160;11.530;2023-04-25T00:24:52;4.43;;;1.90;;
55148;SDS011;49539;48.160;11.530;2023-04-25T00:27:18;4.40;;;1.70;;
55148;SDS011;49539;48.160;11.530;2023-04-25T00:29:44;3.67;;;2.00;;
55148;SDS011;49539;48.160;11.530;2023-04-25T00:32:09;4.13;;;1.70;;
55148;SDS011;49539;48.160;11.530;2023-04-25T00:34:38;3.55;;;1.85;;
55148;SDS011;49539;48.160;11.530;2023-04-25T00:37:04;5.47;;;1.98;;
55148;SDS011;49539;48.160;11.530;2023-04-25T00:39:35;4.63;;;2.45;;
55148;SDS011;49539;48.160;11.530;2023-04-25T00:42:00;3.80;;;1.70;;
55148;SDS011;49539;48.160;11.530;2023-04-25T00:44:27;4.10;;;1.77;;
55148;SDS011;49539;48.160;11.530;2023-04-25T00:46:53;3.35;;;1.92;;
55148;SDS011;49539;48.160;11.530;2023-04-25T00:49:18;4.47;;;2.00;;
55148;SDS011;49539;48.160;11.530;2023-04-25T00:51:44;3.42;;;1.75;;
55148;SDS011;49539;48.160;11.530;2023-04-25T00:54:10;2.78;;;1.67;;
55148;SDS011;49539;48.160;11.530;2023-04-25T00:56:36;2.58;;;1.52;;
55148;SDS011;49539;48.160;11.530;2023-04-25T00:59:01;1.98;;;1.42;;
55148;SDS011;49539;48.160;11.530;2023-04-25T01:01:26;3.05;;;1.50;;
55148;SDS011;49539;48.160;11.530;2023-04-25T01:03:53;3.05;;;1.70;;
55148;SDS011;49539;48.160;11.530;2023-04-25T01:06:33;3.53;;;1.80;;
55148;SDS011;49539;48.160;11.530;2023-04-25T01:09:18;3.05;;;1.80;;
55148;SDS011;49539;48.160;11.530;2023-04-25T01:11:44;4.93;;;1.90;;
55148;SDS011;49539;48.160;11.530;2023-04-25T01:14:09;4.22;;;2.28;;
55148;SDS011;49539;48.160;11.530;2023-04-25T01:16:35;4.50;;;1.70;;
55148;SDS011;49539;48.160;11.530;2023-04-25T01:19:01;4.63;;;1.73;;
55148;SDS011;49539;48.160;11.530;2023-04-25T01:21:46;3.45;;;1.95;;
55148;SDS011;49539;48.160;11.530;2023-04-25T01:24:13;3.05;;;2.10;;
55148;SDS011;49539;48.160;11.530;2023-04-25T01:26:40;4.45;;;2.20;;
55148;SDS011;49539;48.160;11.530;2023-04-25T01:29:09;3.53;;;2.00;;
55148;SDS011;49539;48.160;11.530;2023-04-25T01:31:34;3.20;;;1.83;;
55148;SDS011;49539;48.160;11.530;2023-04-25T01:34:02;4.15;;;2.05;;
55148;SDS011;49539;48.160;11.530;2023-04-25T01:36:27;3.40;;;1.98;;
55148;SDS011;49539;48.160;11.530;2023-04-25T01:38:53;4.40;;;1.70;;
55148;SDS011;49539;48.160;11.530;2023-04-25T01:41:38;4.03;;;1.92;;
55148;SDS011;49539;48.160;11.530;2023-04-25T01:44:03;4.43;;;2.00;;
55148;SDS011;49539;48.160;11.530;2023-04-25T01:46:28;5.68;;;2.35;;
55148;SDS011;49539;48.160;11.530;2023-04-25T01:48:54;3.13;;;2.05;;
55148;SDS011;49539;48.160;11.530;2023-04-25T01:51:19;6.20;;;1.98;;
55148;SDS011;49539;48.160;11.530;2023-04-25T01:53:45;3.83;;;2.22;;
55148;SDS011;49539;48.160;11.530;2023-04-25T01:56:10;5.15;;;2.30;;
55148;SDS011;49539;48.160;11.530;2023-04-25T01:58:35;5.03;;;2.30;;
55148;SDS011;49539;48.160;11.530;2023-04-25T02:01:01;4.20;;;1.95;;
55148;SDS011;49539;48.160;11.530;2023-04-25T02:03:26;3.40;;;2.20;;
55148;SDS011;49539;48.160;11.530;2023-04-25T02:05:51;4.72;;;2.17;;
55148;SDS011;49539;48.160;11.530;2023-04-25T02:08:17;4.45;;;2.28;;
55148;SDS011;49539;48.160;11.530;2023-04-25T02:10:43;4.95;;;2.17;;
55148;SDS011;49539;48.160;11.530;2023-04-25T02:13:08;7.05;;;2.03;;
55148;SDS011;49539;48.160;11.530;2023-04-25T02:15:33;3.78;;;2.17;;
55148;SDS011;49539;48.160;11.530;2023-04-25T02:17:59;3.75;;;1.90;;
55148;SDS011;49539;48.160;11.530;2023-04-25T02:20:25;4.80;;;2.17;;
55148;SDS011;49539;48.160;11.530;2023-04-25T02:22:50;3.88;;;2.35;;
55148;SDS011;49539;48.160;11.530;2023-04-25T02:25:16;3.63;;;2.00;;
55148;SDS011;49539;48.160;11.530;2023-04-25T02:27:42;5.40;;;2.05;;
55148;SDS011;49539;48.160;11.530;2023-04-25T02:30:08;3.80;;;1.98;;
55148;SDS011;49539;48.160;11.530;2023-04-25T02:32:33;2.85;;;1.60;;
55148;SDS011;49539;48.160;11.530;2023-04-25T02:34:59;2.50;;;1.75;;
55148;SDS011;49539;48.160;11.530;2023-04-25T02:37:29;2.72;;;1.67;;
55148;SDS011;49539;48.160;11.530;2023-04-25T02:39:54;2.95;;;1.67;;
55148;SDS011;49539;48.160;11.530;2023-04-25T02:42:19;3.88;;;2.30;;
55148;SDS011;49539;48.160;11.530;2023-04-25T02:44:45;5.00;;;2.30;;
55148;SDS011;49539;48.160;11.530;2023-04-25T02:47:10;2.83;;;1.58;;
55148;SDS011;49539;48.160;11.530;2023-04-25T02:49:35;4.53;;;2.00;;
55148;SDS011;49539;48.160;11.530;2023-04-25T02:52:00;2.65;;;1.85;;
55148;SDS011;49539;48.160;11.530;2023-04-25T02:54:26;5.03;;;2.33;;
55148;SDS011;49539;48.160;11.530;2023-04-25T02:56:51;3.10;;;2.03;;
55148;SDS011;49539;48.160;11.530;2023-04-25T02:59:16;3.53;;;1.90;;
55148;SDS011;49539;48.160;11.530;2023-04-25T03:01:41;3.70;;;1.88;;
55148;SDS011;49539;48.160;11.530;2023-04-25T03:04:07;4.13;;;2.08;;
55148;SDS011;49539;48.160;11.530;2023-04-25T03:06:32;5.10;;;1.92;;
55148;SDS011;49539;48.160;11.530;2023-04-25T03:08:57;4.03;;;1.80;;
55148;SDS011;49539;48.160;11.530;2023-04-25T03:11:24;3.30;;;1.98;;
55148;SDS011;49539;48.160;11.530;2023-04-25T03:13:50;3.88;;;1.73;;
55148;SDS011;49539;48.160;11.530;2023-04-25T03:16:15;4.22;;;2.30;;
55148;SDS011;49539;48.160;11.530;2023-04-25T03:18:41;3.38;;;2.13;;
55148;SDS011;49539;48.160;11.530;2023-04-25T03:21:06;3.33;;;1.88;;
55148;SDS011;49539;48.160;11.530;2023-04-25T03:23:31;4.30;;;1.90;;
55148;SDS011;49539;48.160;11.530;2023-04-25T03:25:56;4.78;;;2.35;;
55148;SDS011;49539;48.160;11.530;2023-04-25T03:28:22;4.28;;;2.10;;
55148;SDS011;49539;48.160;11.530;2023-04-25T03:30:53;3.95;;;1.90;;
55148;SDS011;49539;48.160;11.530;2023-04-25T03:33:19;3.67;;;2.00;;
55148;SDS011;49539;48.160;11.530;2023-04-25T03:35:44;4.10;;;1.70;;
55148;SDS011;49539;48.160;11.530;2023-04-25T03:38:09;3.53;;;1.90;;
55148;SDS011;49539;48.160;11.530;2023-04-25T03:40:35;5.50;;;2.47;;
55148;SDS011;49539;48.160;11.530;2023-04-25T03:43:00;3.83;;;1.90;;
55148;SDS011;49539;48.160;11.530;2023-04-25T03:45:25;3.25;;;1.80;;
55148;SDS011;49539;48.160;11.530;2023-04-25T03:47:51;6.68;;;2.58;;
55148;SDS011;49539;48.160;11.530;2023-04-25T03:50:16;3.65;;;1.90;;
55148;SDS011;49539;48.160;11.530;2023-04-25T03:52:42;4.32;;;1.58;;
55148;SDS011;49539;48.160;11.530;2023-04-25T03:55:08;3.92;;;1.83;;
55148;SDS011;49539;48.160;11.530;2023-04-25T03:57:33;4.30;;;2.08;;
55148;SDS011;49539;48.160;11.530;2023-04-25T03:59:58;2.88;;;1.50;;
55148;SDS011;49539;48.160;11.530;2023-04-25T04:02:24;2.10;;;1.35;;
55148;SDS011;49539;48.160;11.530;2023-04-25T04:04:49;2.67;;;1.48;;
55148;SDS011;49539;48.160;11.530;2023-04-25T04:07:14;4.03;;;1.40;;
55148;SDS011;49539;48.160;11.530;2023-04-25T04:09:40;3.28;;;1.48;;
55148;SDS011;49539;48.160;11.530;2023-04-25T04:12:05;3.35;;;1.52;;
55148;SDS011;49539;48.160;11.530;2023-04-25T04:14:31;3.65;;;1.70;;
55148;SDS011;49539;48.160;11.530;2023-04-25T04:16:56;2.58;;;1.48;;
55148;SDS011;49539;48.160;11.530;2023-04-25T04:19:21;3.83;;;1.70;;
55148;SDS011;49539;48.160;11.530;2023-04-25T04:21:47;5.43;;;1.20;;
55148;SDS011;49539;48.160;11.530;2023-04-25T04:24:12;1.88;;;1.33;;
55148;SDS011;49539;48.160;11.530;2023-04-25T04:26:37;4.25;;;1.40;;
55148;SDS011;49539;48.160;11.530;2023-04-25T04:29:03;2.13;;;1.10;;
55148;SDS011;49539;48.160;11.530;2023-04-25T04:31:29;3.03;;;1.70;;
55148;SDS011;49539;48.160;11.530;2023-04-25T04:33:55;6.28;;;1.98;;
55148;SDS011;49539;48.160;11.530;2023-04-25T04:36:20;1.80;;;1.30;;
55148;SDS011;49539;48.160;11.530;2023-04-25T04:38:47;2.53;;;1.58;;
55148;SDS011;49539;48.160;11.530;2023-04-25T04:41:12;4.20;;;1.80;;
55148;SDS011;49539;48.160;11.530;2023-04-25T04:43:37;4.43;;;1.97;;
55148;SDS011;49539;48.160;11.530;2023-04-25T04:46:04;3.72;;;1.67;;
55148;SDS011;49539;48.160;11.530;2023-04-25T04:48:31;3.05;;;1.63;;
55148;SDS011;49539;48.160;11.530;2023-04-25T04:50:57;2.50;;;1.38;;
55148;SDS011;49539;48.160;11.530;2023-04-25T04:53:23;1.80;;;1.40;;
55148;SDS011;49539;48.160;11.530;2023-04-25T04:55:48;3.92;;;1.80;;
55148;SDS011;49539;48.160;11.530;2023-04-25T04:58:14;2.85;;;1.70;;
55148;SDS011;49539;48.160;11.530;2023-04-25T05:00:39;7.57;;;1.58;;
55148;SDS011;49539;48.160;11.530;2023-04-25T05:03:05;5.18;;;2.28;;
55148;SDS011;49539;48.160;11.530;2023-04-25T05:05:30;5.03;;;2.45;;
55148;SDS011;49539;48.160;11.530;2023-04-25T05:07:56;3.63;;;2.17;;
55148;SDS011;49539;48.160;11.530;2023-04-25T05:10:21;3.13;;;2.03;;
55148;SDS011;49539;48.160;11.530;2023-04-25T05:12:46;3.05;;;1.80;;
55148;SDS011;49539;48.160;11.530;2023-04-25T05:15:11;3.47;;;2.00;;
55148;SDS011;49539;48.160;11.530;2023-04-25T05:17:37;5.30;;;2.13;;
55148;SDS011;49539;48.160;11.530;2023-04-25T05:20:03;3.67;;;1.85;;
55148;SDS011;49539;48.160;11.530;2023-04-25T05:22:30;2.03;;;1.55;;
55148;SDS011;49539;48.160;11.530;2023-04-25T05:24:56;2.67;;;1.60;;
55148;SDS011;49539;48.160;11.530;2023-04-25T05:27:21;3.83;;;1.70;;
55148;SDS011;49539;48.160;11.530;2023-04-25T05:29:46;4.35;;;2.08;;
55148;SDS011;49539;48.160;11.530;2023-04-25T05:32:11;5.50;;;1.83;;
55148;SDS011;49539;48.160;11.530;2023-04-25T05:34:37;3.20;;;1.80;;
55148;SDS011;49539;48.160;11.530;2023-04-25T05:37:02;6.13;;;2.35;;
55148;SDS011;49539;48.160;11.530;2023-04-25T05:39:27;4.50;;;2.00;;
55148;SDS011;49539;48.160;11.530;2023-04-25T05:41:53;5.00;;;2.20;;
55148;SDS011;49539;48.160;11.530;2023-04-25T05:44:18;9.02;;;2.60;;
55148;SDS011;49539;48.160;11.530;2023-04-25T05:46:43;5.93;;;2.47;;
55148;SDS011;49539;48.160;11.530;2023-04-25T05:49:09;4.65;;;2.17;;
55148;SDS011;49539;48.160;11.530;2023-04-25T05:51:34;4.65;;;2.17;;
55148;SDS011;49539;48.160;11.530;2023-04-25T05:54:00;3.30;;;1.75;;
55148;SDS011;49539;48.160;11.530;2023-04-25T05:56:25;2.90;;;1.80;;
55148;SDS011;49539;48.160;11.530;2023-04-25T05:58:50;6.60;;;2.30;;
55148;SDS011;49539;48.160;11.530;2023-04-25T06:01:16;7.05;;;2.47;;
55148;SDS011;49539;48.160;11.530;2023-04-25T06:03:41;7.70;;;2.47;;
55148;SDS011;49539;48.160;11.530;2023-04-25T06:06:08;7.43;;;2.10;;
55148;SDS011;49539;48.160;11.530;2023-04-25T06:08:33;5.45;;;2.35;;
55148;SDS011;49539;48.160;11.530;2023-04-25T06:10:58;4.43;;;2.35;;
55148;SDS011;49539;48.160;11.530;2023-04-25T06:13:24;4.35;;;2.47;;
55148;SDS011;49539;48.160;11.530;2023-04-25T06:15:49;5.43;;;2.80;;
55148;SDS011;49539;48.160;11.530;2023-04-25T06:18:14;5.40;;;3.08;;
55148;SDS011;49539;48.160;11.530;2023-04-25T06:20:40;8.10;;;2.30;;
55148;SDS011;49539;48.160;11.530;2023-04-25T06:23:05;2.92;;;2.03;;
55148;SDS011;49539;48.160;11.530;2023-04-25T06:25:30;4.68;;;2.35;;
55148;SDS011;49539;48.160;11.530;2023-04-25T06:27:56;7.20;;;2.00;;
55148;SDS011;49539;48.160;11.530;2023-04-25T06:30:21;5.13;;;2.47;;
55148;SDS011;49539;48.160;11.530;2023-04-25T06:32:50;4.85;;;2.05;;
55148;SDS011;49539;48.160;11.530;2023-04-25T06:35:15;5.10;;;2.60;;
55148;SDS011;49539;48.160;11.530;2023-04-25T06:37:41;5.25;;;2.60;;
55148;SDS011;49539;48.160;11.530;2023-04-25T06:40:06;7.80;;;2.75;;
55148;SDS011;49539;48.160;11.530;2023-04-25T06:42:31;4.85;;;2.80;;
55148;SDS011;49539;48.160;11.530;2023-04-25T06:44:57;9.40;;;3.22;;
55148;SDS011;49539;48.160;11.530;2023-04-25T06:47:22;6.78;;;3.53;;
55148;SDS011;49539;48.160;11.530;2023-04-25T06:49:47;6.47;;;3.20;;
55148;SDS011;49539;48.160;11.530;2023-04-25T06:52:12;7.10;;;3.50;;
55148;SDS011;49539;48.160;11.530;2023-04-25T06:54:38;5.32;;;3.00;;
55148;SDS011;49539;48.160;11.530;2023-04-25T06:57:03;6.32;;;2.88;;
55148;SDS011;49539;48.160;11.530;2023-04-25T06:59:28;4.80;;;2.72;;
55148;SDS011;49539;48.160;11.530;2023-04-25T07:01:53;5.53;;;3.10;;
55148;SDS011;49539;48.160;11.530;2023-04-25T07:04:19;7.40;;;2.88;;
55148;SDS011;49539;48.160;11.530;2023-04-25T07:06:44;5.32;;;2.67;;
55148;SDS011;49539;48.160;11.530;2023-04-25T07:09:09;4.65;;;2.67;;
55148;SDS011;49539;48.160;11.530;2023-04-25T07:11:35;8.63;;;3.53;;
55148;SDS011;49539;48.160;11.530;2023-04-25T07:14:00;10.40;;;2.45;;
55148;SDS011;49539;48.160;11.530;2023-04-25T07:16:26;7.50;;;2.95;;
55148;SDS011;49539;48.160;11.530;2023-04-25T07:18:51;8.65;;;3.78;;
55148;SDS011;49539;48.160;11.530;2023-04-25T07:21:16;4.03;;;1.88;;
55148;SDS011;49539;48.160;11.530;2023-04-25T07:23:42;5.88;;;2.60;;
55148;SDS011;49539;48.160;11.530;2023-04-25T07:26:07;4.78;;;2.60;;
55148;SDS011;49539;48.160;11.530;2023-04-25T07:28:32;4.03;;;2.20;;
55148;SDS011;49539;48.160;11.530;2023-04-25T07:30:58;4.78;;;2.05;;
55148;SDS011;49539;48.160;11.530;2023-04-25T07:33:23;4.25;;;2.70;;
55148;SDS011;49539;48.160;11.530;2023-04-25T07:35:48;3.58;;;2.08;;
55148;SDS011;49539;48.160;11.530;2023-04-25T07:38:14;5.72;;;2.17;;
55148;SDS011;49539;48.160;11.530;2023-04-25T07:40:39;5.30;;;2.83;;
55148;SDS011;49539;48.160;11.530;2023-04-25T07:43:04;5.50;;;2.58;;
55148;SDS011;49539;48.160;11.530;2023-04-25T07:45:30;6.88;;;2.40;;
55148;SDS011;49539;48.160;11.530;2023-04-25T07:47:55;5.90;;;2.78;;
55148;SDS011;49539;48.160;11.530;2023-04-25T07:50:20;5.25;;;2.63;;
55148;SDS011;49539;48.160;11.530;2023-04-25T07:52:46;6.43;;;3.00;;
55148;SDS011;49539;48.160;11.530;2023-04-25T07:55:11;5.03;;;2.70;;
55148;SDS011;49539;48.160;11.530;2023-04-25T07:57:36;6.00;;;3.13;;
55148;SDS011;49539;48.160;11.530;2023-04-25T08:00:03;5.68;;;2.78;;
55148;SDS011;49539;48.160;11.530;2023-04-25T08:02:29;5.38;;;2.40;;
55148;SDS011;49539;48.160;11.530;2023-04-25T08:04:55;5.95;;;2.85;;
55148;SDS011;49539;48.160;11.530;2023-04-25T08:07:20;4.90;;;2.33;;
55148;SDS011;49539;48.160;11.530;2023-04-25T08:09:46;4.72;;;2.58;;
55148;SDS011;49539;48.160;11.530;2023-04-25T08:12:11;3.90;;;2.08;;
55148;SDS011;49539;48.160;11.530;2023-04-25T08:14:36;4.10;;;2.20;;
55148;SDS011;49539;48.160;11.530;2023-04-25T08:17:02;4.00;;;1.90;;
55148;SDS011;49539;48.160;11.530;2023-04-25T08:19:31;4.43;;;2.25;;
55148;SDS011;49539;48.160;11.530;2023-04-25T08:21:56;3.45;;;2.28;;
55148;SDS011;49539;48.160;11.530;2023-04-25T08:24:22;3.78;;;1.98;;
55148;SDS011;49539;48.160;11.530;2023-04-25T08:26:47;4.97;;;2.03;;
55148;SDS011;49539;48.160;11.530;2023-04-25T08:29:13;4.68;;;1.80;;
55148;SDS011;49539;48.160;11.530;2023-04-25T08:31:38;3.45;;;2.03;;
55148;SDS011;49539;48.160;11.530;2023-04-25T08:34:03;3.97;;;2.50;;
55148;SDS011;49539;48.160;11.530;2023-04-25T08:36:29;5.85;;;2.10;;
55148;SDS011;49539;48.160;11.530;2023-04-25T08:38:55;4.72;;;2.33;;
55148;SDS011;49539;48.160;11.530;2023-04-25T08:41:20;3.97;;;1.95;;
55148;SDS011;49539;48.160;11.530;2023-04-25T08:43:47;3.88;;;2.00;;
55148;SDS011;49539;48.160;11.530;2023-04-25T08:46:13;3.33;;;1.60;;
55148;SDS011;49539;48.160;11.530;2023-04-25T08:48:42;4.60;;;1.58;;
55148;SDS011;49539;48.160;11.530;2023-04-25T08:51:07;4.20;;;1.65;;
55148;SDS011;49539;48.160;11.530;2023-04-25T08:53:33;3.33;;;1.67;;
55148;SDS011;49539;48.160;11.530;2023-04-25T08:56:00;4.32;;;1.98;;
55148;SDS011;49539;48.160;11.530;2023-04-25T08:58:27;2.78;;;1.50;;
55148;SDS011;49539;48.160;11.530;2023-04-25T09:00:53;2.80;;;1.60;;
55148;SDS011;49539;48.160;11.530;2023-04-25T09:03:18;2.13;;;1.20;;
55148;SDS011;49539;48.160;11.530;2023-04-25T09:05:43;2.63;;;1.23;;
55148;SDS011;49539;48.160;11.530;2023-04-25T09:08:09;5.03;;;1.73;;
55148;SDS011;49539;48.160;11.530;2023-04-25T09:10:35;2.75;;;1.20;;
55148;SDS011;49539;48.160;11.530;2023-04-25T09:13:04;3.15;;;1.38;;
55148;SDS011;49539;48.160;11.530;2023-04-25T09:15:31;2.72;;;1.50;;
55148;SDS011;49539;48.160;11.530;2023-04-25T09:17:56;6.50;;;1.25;;
55148;SDS011;49539;48.160;11.530;2023-04-25T09:20:22;2.25;;;1.10;;
55148;SDS011;49539;48.160;11.530;2023-04-25T09:22:47;3.22;;;1.15;;
55148;SDS011;49539;48.160;11.530;2023-04-25T09:25:13;3.38;;;1.30;;
55148;SDS011;49539;48.160;11.530;2023-04-25T09:27:50;2.90;;;1.40;;
55148;SDS011;49539;48.160;11.530;2023-04-25T09:30:17;2.63;;;1.25;;
55148;SDS011;49539;48.160;11.530;2023-04-25T09:32:43;1.70;;;0.95;;
55148;SDS011;49539;48.160;11.530;2023-04-25T09:35:08;2.08;;;1.20;;
55148;SDS011;49539;48.160;11.530;2023-04-25T09:37:34;2.42;;;1.58;;
55148;SDS011;49539;48.160;11.530;2023-04-25T09:40:00;2.75;;;1.50;;
55148;SDS011;49539;48.160;11.530;2023-04-25T09:42:31;2.53;;;1.58;;
55148;SDS011;49539;48.160;11.530;2023-04-25T09:44:57;2.03;;;1.20;;
55148;SDS011;49539;48.160;11.530;2023-04-25T09:47:23;2.22;;;1.30;;
55148;SDS011;49539;48.160;11.530;2023-04-25T09:49:48;2.35;;;1.15;;
55148;SDS011;49539;48.160;11.530;2023-04-25T09:52:18;3.65;;;1.42;;
55148;SDS011;49539;48.160;11.530;2023-04-25T09:54:46;1.77;;;0.93;;
55148;SDS011;49539;48.160;11.530;2023-04-25T09:57:16;4.72;;;1.52;;
55148;SDS011;49539;48.160;11.530;2023-04-25T09:59:45;1.88;;;1.15;;
55148;SDS011;49539;48.160;11.530;2023-04-25T10:02:11;2.03;;;1.40;;
55148;SDS011;49539;48.160;11.530;2023-04-25T10:04:37;4.03;;;1.38;;
55148;SDS011;49539;48.160;11.530;2023-04-25T10:07:05;3.08;;;1.00;;
55148;SDS011;49539;48.160;11.530;2023-04-25T10:09:31;3.33;;;1.27;;
55148;SDS011;49539;48.160;11.530;2023-04-25T10:11:59;2.00;;;1.30;;
55148;SDS011;49539;48.160;11.530;2023-04-25T10:14:24;2.60;;;1.30;;
55148;SDS011;49539;48.160;11.530;2023-04-25T10:16:50;10.52;;;2.05;;
55148;SDS011;49539;48.160;11.530;2023-04-25T10:19:18;3.88;;;1.50;;
55148;SDS011;49539;48.160;11.530;2023-04-25T10:21:46;2.92;;;1.20;;
55148;SDS011;49539;48.160;11.530;2023-04-25T10:24:13;2.28;;;1.17;;
55148;SDS011;49539;48.160;11.530;2023-04-25T10:26:39;1.60;;;1.00;;
55148;SDS011;49539;48.160;11.530;2023-04-25T10:29:05;2.13;;;1.10;;
55148;SDS011;49539;48.160;11.530;2023-04-25T10:31:31;2.97;;;1.52;;
55148;SDS011;49539;48.160;11.530;2023-04-25T10:33:56;2.35;;;1.27;;
55148;SDS011;49539;48.160;11.530;2023-04-25T10:36:22;2.42;;;1.20;;
55148;SDS011;49539;48.160;11.530;2023-04-25T10:38:50;3.92;;;1.25;;
55148;SDS011;49539;48.160;11.530;2023-04-25T10:41:17;1.10;;;0.70;;
55148;SDS011;49539;48.160;11.530;2023-04-25T10:43:44;2.05;;;0.90;;
55148;SDS011;49539;48.160;11.530;2023-04-25T10:46:16;1.08;;;0.65;;
55148;SDS011;49539;48.160;11.530;2023-04-25T10:49:00;2.17;;;0.90;;
55148;SDS011;49539;48.160;11.530;2023-04-25T10:51:27;1.27;;;0.80;;
55148;SDS011;49539;48.160;11.530;2023-04-25T11:01:43;10.18;;;1.60;;
55148;SDS011;49539;48.160;11.530;2023-04-25T11:09:29;1.40;;;0.90;;
55148;SDS011;49539;48.160;11.530;2023-04-25T11:11:57;2.55;;;1.30;;
55148;SDS011;49539;48.160;11.530;2023-04-25T11:14:24;2.33;;;1.10;;
55148;SDS011;49539;48.160;11.530;2023-04-25T11:16:56;2.17;;;1.48;;
55148;SDS011;49539;48.160;11.530;2023-04-25T11:19:22;1.67;;;1.10;;
55148;SDS011;49539;48.160;11.530;2023-04-25T11:21:47;2.33;;;1.05;;
55148;SDS011;49539;48.160;11.530;2023-04-25T11:24:12;1.02;;;0.80;;
55148;SDS011;49539;48.160;11.530;2023-04-25T11:26:38;4.13;;;1.35;;
55148;SDS011;49539;48.160;11.530;2023-04-25T11:29:03;3.72;;;1.10;;
55148;SDS011;49539;48.160;11.530;2023-04-25T11:31:30;5.25;;;1.23;;
55148;SDS011;49539;48.160;11.530;2023-04-25T11:33:58;2.25;;;1.25;;
55148;SDS011;49539;48.160;11.530;2023-04-25T11:36:24;5.43;;;1.27;;
55148;SDS011;49539;48.160;11.530;2023-04-25T11:38:50;2.63;;;1.10;;
55148;SDS011;49539;48.160;11.530;2023-04-25T11:41:15;1.88;;;1.00;;
55148;SDS011;49539;48.160;11.530;2023-04-25T11:43:42;2.90;;;1.50;;
55148;SDS011;49539;48.160;11.530;2023-04-25T11:46:07;2.95;;;1.40;;
55148;SDS011;49539;48.160;11.530;2023-04-25T11:48:39;3.60;;;1.40;;
55148;SDS011;49539;48.160;11.530;2023-04-25T11:51:05;2.05;;;1.02;;
55148;SDS011;49539;48.160;11.530;2023-04-25T11:53:31;2.17;;;1.10;;
55148;SDS011;49539;48.160;11.530;2023-04-25T11:55:56;2.08;;;1.23;;
55148;SDS011;49539;48.160;11.530;2023-04-25T11:58:22;2.15;;;1.17;;
55148;SDS011;49539;48.160;11.530;2023-04-25T12:00:47;1.23;;;0.90;;
55148;SDS011;49539;48.160;11.530;2023-04-25T12:03:13;1.77;;;1.33;;
55148;SDS011;49539;48.160;11.530;2023-04-25T12:05:38;1.08;;;0.80;;
55148;SDS011;49539;48.160;11.530;2023-04-25T12:08:14;1.88;;;1.15;;
55148;SDS011;49539;48.160;11.530;2023-04-25T12:10:40;2.17;;;1.15;;
55148;SDS011;49539;48.160;11.530;2023-04-25T12:13:22;2.20;;;1.20;;
55148;SDS011;49539;48.160;11.530;2023-04-25T12:15:47;2.15;;;0.90;;
55148;SDS011;49539;48.160;11.530;2023-04-25T12:18:13;1.52;;;0.90;;
55148;SDS011;49539;48.160;11.530;2023-04-25T12:20:39;2.40;;;0.90;;
55148;SDS011;49539;48.160;11.530;2023-04-25T12:23:06;1.40;;;0.88;;
55148;SDS011;49539;48.160;11.530;2023-04-25T12:28:23;1.25;;;0.77;;
55148;SDS011;49539;48.160;11.530;2023-04-25T12:30:52;2.08;;;1.00;;
55148;SDS011;49539;48.160;11.530;2023-04-25T12:33:18;3.20;;;1.10;;
55148;SDS011;49539;48.160;11.530;2023-04-25T12:35:43;2.17;;;0.80;;
55148;SDS011;49539;48.160;11.530;2023-04-25T12:38:08;2.03;;;1.02;;
55148;SDS011;49539;48.160;11.530;2023-04-25T12:40:33;1.70;;;1.10;;
55148;SDS011;49539;48.160;11.530;2023-04-25T12:42:59;1.48;;;1.00;;
55148;SDS011;49539;48.160;11.530;2023-04-25T12:45:25;1.65;;;1.00;;
55148;SDS011;49539;48.160;11.530;2023-04-25T12:47:50;1.08;;;0.77;;
55148;SDS011;49539;48.160;11.530;2023-04-25T12:50:16;2.05;;;1.00;;
55148;SDS011;49539;48.160;11.530;2023-04-25T12:52:41;2.83;;;1.23;;
55148;SDS011;49539;48.160;11.530;2023-04-25T12:55:06;1.70;;;0.95;;
55148;SDS011;49539;48.160;11.530;2023-04-25T12:57:32;2.33;;;1.35;;
55148;SDS011;49539;48.160;11.530;2023-04-25T12:59:57;3.97;;;1.15;;
55148;SDS011;49539;48.160;11.530;2023-04-25T13:02:22;2.45;;;1.20;;
55148;SDS011;49539;48.160;11.530;2023-04-25T13:04:47;2.05;;;1.00;;
55148;SDS011;49539;48.160;11.530;2023-04-25T13:07:13;2.05;;;1.00;;
55148;SDS011;49539;48.160;11.530;2023-04-25T13:09:38;4.53;;;1.08;;
55148;SDS011;49539;48.160;11.530;2023-04-25T13:12:03;1.50;;;0.98;;
55148;SDS011;49539;48.160;11.530;2023-04-25T13:14:29;1.52;;;0.90;;
55148;SDS011;49539;48.160;11.530;2023-04-25T13:16:54;1.17;;;0.82;;
55148;SDS011;49539;48.160;11.530;2023-04-25T13:19:19;4.28;;;1.38;;
55148;SDS011;49539;48.160;11.530;2023-04-25T13:21:45;2.75;;;1.10;;
55148;SDS011;49539;48.160;11.530;2023-04-25T13:24:10;3.42;;;1.25;;
55148;SDS011;49539;48.160;11.530;2023-04-25T13:26:35;2.25;;;1.33;;
55148;SDS011;49539;48.160;11.530;2023-04-25T13:29:01;2.53;;;1.50;;
55148;SDS011;49539;48.160;11.530;2023-04-25T13:31:28;3.05;;;1.33;;
55148;SDS011;49539;48.160;11.530;2023-04-25T13:33:53;3.00;;;1.48;;
55148;SDS011;49539;48.160;11.530;2023-04-25T13:36:19;1.45;;;0.93;;
55148;SDS011;49539;48.160;11.530;2023-04-25T13:38:44;4.18;;;1.10;;
55148;SDS011;49539;48.160;11.530;2023-04-25T13:41:12;2.88;;;1.20;;
55148;SDS011;49539;48.160;11.530;2023-04-25T13:43:42;1.83;;;0.95;;
55148;SDS011;49539;48.160;11.530;2023-04-25T13:46:07;1.45;;;0.90;;
55148;SDS011;49539;48.160;11.530;2023-04-25T13:48:33;1.63;;;0.88;;
55148;SDS011;49539;48.160;11.530;2023-04-25T13:50:58;1.50;;;0.85;;
55148;SDS011;49539;48.160;11.530;2023-04-25T13:53:24;1.30;;;1.05;;
55148;SDS011;49539;48.160;11.530;2023-04-25T13:55:49;1.35;;;0.90;;
55148;SDS011;49539;48.160;11.530;2023-04-25T13:58:15;2.53;;;1.40;;
55148;SDS011;49539;48.160;11.530;2023-04-25T14:00:40;1.45;;;0.80;;
55148;SDS011;49539;48.160;11.530;2023-04-25T14:03:08;6.93;;;1.30;;
55148;SDS011;49539;48.160;11.530;2023-04-25T14:05:34;2.25;;;1.58;;
55148;SDS011;49539;48.160;11.530;2023-04-25T14:08:03;2.45;;;1.27;;
55148;SDS011;49539;48.160;11.530;2023-04-25T14:10:28;1.95;;;1.27;;
55148;SDS011;49539;48.160;11.530;2023-04-25T14:12:53;2.28;;;1.33;;
55148;SDS011;49539;48.160;11.530;2023-04-25T14:15:19;1.85;;;1.30;;
55148;SDS011;49539;48.160;11.530;2023-04-25T14:17:45;2.15;;;1.30;;
55148;SDS011;49539;48.160;11.530;2023-04-25T14:20:10;3.08;;;1.38;;
55148;SDS011;49539;48.160;11.530;2023-04-25T14:22:36;2.92;;;1.83;;
55148;SDS011;49539;48.160;11.530;2023-04-25T14:25:02;2.65;;;1.55;;
55148;SDS011;49539;48.160;11.530;2023-04-25T14:27:28;3.50;;;1.50;;
55148;SDS011;49539;48.160;11.530;2023-04-25T14:29:53;1.88;;;0.98;;
55148;SDS011;49539;48.160;11.530;2023-04-25T14:32:18;1.17;;;0.88;;
55148;SDS011;49539;48.160;11.530;2023-04-25T14:34:45;1.27;;;0.85;;
55148;SDS011;49539;48.160;11.530;2023-04-25T14:37:10;1.38;;;0.90;;
55148;SDS011;49539;48.160;11.530;2023-04-25T14:39:35;1.98;;;1.00;;
55148;SDS011;49539;48.160;11.530;2023-04-25T14:42:02;3.03;;;0.95;;